Time;durP1;ratioP1;P1;durP2;ratioP2;P2;SDS_P1;SDS_P2;PMS_P1;PMS_P2;Temp;Humidity;BMP_temperature;BMP_pressure;BME280_temperature;BME280_humidity;BME280_pressure;Samples;Min_cycle;Max_cycle;Signal;HPM_P1;HPM_P2
2022/12/04 00:01:03;;;;;;;35.85;14.30;;;2.00;99.90;;;;;;4993362;28;20533;-39
2022/12/04 00:03:28;;;;;;;47.15;15.02;;;2.00;99.90;;;;;;4993365;28;20446;-34
2022/12/04 00:06:03;;;;;;;39.72;13.70;;;2.10;99.90;;;;;;4999908;28;20054;-39
2022/12/04 00:08:28;;;;;;;40.38;15.05;;;2.10;99.90;;;;;;4979426;28;20018;-36
2022/12/04 00:10:54;;;;;;;41.63;13.50;;;2.10;99.90;;;;;;4996963;28;20033;-34
2022/12/04 00:13:19;;;;;;;42.63;14.82;;;2.10;99.90;;;;;;4994776;28;20035;-39
2022/12/04 00:15:45;;;;;;;41.25;13.93;;;2.10;99.90;;;;;;4996494;28;20548;-39
2022/12/04 00:18:11;;;;;;;45.40;14.50;;;2.00;99.90;;;;;;4994570;28;20030;-40
2022/12/04 00:20:39;;;;;;;41.28;15.23;;;2.00;99.90;;;;;;4996783;28;20496;-38
2022/12/04 00:23:06;;;;;;;45.95;16.63;;;2.00;99.90;;;;;;4979060;28;20026;-36
2022/12/04 00:25:31;;;;;;;43.63;15.13;;;2.00;99.90;;;;;;4996954;28;20502;-36
2022/12/04 00:27:57;;;;;;;45.67;15.23;;;2.00;99.90;;;;;;4996712;28;20137;-38
2022/12/04 00:30:22;;;;;;;39.20;14.05;;;2.00;99.90;;;;;;4996665;28;20022;-36
2022/12/04 00:32:48;;;;;;;42.42;14.55;;;2.00;99.90;;;;;;4996529;28;20033;-38
2022/12/04 00:35:14;;;;;;;42.25;14.32;;;2.00;99.90;;;;;;4996437;28;20041;-39
2022/12/04 00:37:39;;;;;;;41.67;15.93;;;2.00;99.90;;;;;;4979106;28;20034;-36
2022/12/04 00:40:06;;;;;;;46.65;15.07;;;2.10;99.90;;;;;;4999447;28;20034;-37
2022/12/04 00:42:31;;;;;;;49.92;15.27;;;2.10;99.90;;;;;;4978493;28;20425;-35
2022/12/04 00:44:57;;;;;;;54.45;16.77;;;2.10;99.90;;;;;;4996389;28;20057;-33
2022/12/04 00:47:23;;;;;;;41.65;15.50;;;2.00;99.90;;;;;;4994996;28;20022;-38
2022/12/04 00:49:49;;;;;;;49.90;14.82;;;2.00;99.90;;;;;;4996381;28;20026;-38
2022/12/04 00:52:14;;;;;;;46.67;16.20;;;1.90;99.90;;;;;;4996265;28;20027;-37
2022/12/04 00:54:40;;;;;;;43.13;14.45;;;1.90;99.90;;;;;;4977815;28;20470;-37
2022/12/04 00:57:06;;;;;;;43.58;15.23;;;1.90;99.90;;;;;;4991321;28;20034;-33
2022/12/04 00:59:31;;;;;;;47.67;16.17;;;2.00;99.90;;;;;;4991654;28;20034;-40
2022/12/04 01:01:57;;;;;;;54.35;15.60;;;2.00;99.90;;;;;;4991535;28;20522;-37
2022/12/04 01:04:22;;;;;;;48.40;15.70;;;2.00;99.90;;;;;;4994251;28;20034;-55
2022/12/04 01:06:48;;;;;;;48.15;14.43;;;1.90;99.90;;;;;;4993081;28;20026;-37
2022/12/04 01:09:14;;;;;;;45.63;16.08;;;1.90;99.90;;;;;;4994863;28;20479;-37
2022/12/04 01:11:39;;;;;;;49.47;16.17;;;1.90;99.90;;;;;;4991022;28;20034;-60
2022/12/04 01:14:05;;;;;;;50.70;15.43;;;2.00;99.90;;;;;;4992016;28;20029;-34
2022/12/04 01:16:34;;;;;;;45.20;16.08;;;1.90;99.90;;;;;;4989871;28;20072;-39
2022/12/04 01:19:00;;;;;;;40.80;14.50;;;1.90;99.90;;;;;;4995669;28;20038;-38
2022/12/04 01:21:26;;;;;;;46.30;15.00;;;1.90;99.90;;;;;;4991626;28;20030;-35
2022/12/04 01:23:52;;;;;;;55.55;16.13;;;1.90;99.90;;;;;;4994663;28;20398;-34
2022/12/04 01:26:18;;;;;;;51.33;17.48;;;1.90;99.90;;;;;;4994828;28;20054;-39
2022/12/04 01:28:43;;;;;;;46.95;16.05;;;1.90;99.90;;;;;;4995472;28;20027;-37
2022/12/04 01:31:15;;;;;;;54.10;17.20;;;2.00;99.90;;;;;;4998339;28;20030;-38
2022/12/04 01:33:41;;;;;;;53.40;17.00;;;2.00;99.90;;;;;;4995487;28;20026;-35
2022/12/04 01:36:10;;;;;;;50.03;17.10;;;1.90;99.90;;;;;;4993284;28;20041;-40
2022/12/04 01:38:36;;;;;;;45.30;15.35;;;2.00;99.90;;;;;;4995882;28;20114;-35
2022/12/04 01:41:02;;;;;;;47.47;16.10;;;2.00;99.90;;;;;;4995308;28;20379;-39
2022/12/04 01:43:30;;;;;;;49.67;16.23;;;2.00;99.90;;;;;;4995081;28;20121;-37
2022/12/04 01:45:58;;;;;;;50.75;17.15;;;2.00;99.90;;;;;;4977769;28;20442;-37
2022/12/04 01:48:26;;;;;;;41.33;13.18;;;2.00;99.90;;;;;;4994810;28;20061;-37
2022/12/04 01:50:57;;;;;;;51.90;15.50;;;2.00;99.90;;;;;;4999820;28;20112;-38
2022/12/04 01:53:24;;;;;;;42.38;15.02;;;2.00;99.90;;;;;;4996549;28;20524;-32
2022/12/04 01:55:49;;;;;;;52.40;16.45;;;2.00;99.90;;;;;;5008945;28;20112;-35
2022/12/04 01:58:19;;;;;;;54.28;17.52;;;2.00;99.90;;;;;;5014609;28;20108;-40
2022/12/04 02:00:45;;;;;;;46.97;17.52;;;2.10;99.90;;;;;;5014597;28;20030;-37
2022/12/04 02:03:12;;;;;;;49.83;16.88;;;2.00;99.90;;;;;;5014091;28;20026;-39
2022/12/04 02:05:38;;;;;;;54.17;16.20;;;2.00;99.90;;;;;;5000559;28;20026;-35
2022/12/04 02:08:04;;;;;;;46.08;17.02;;;2.00;99.90;;;;;;4993946;28;20501;-36
2022/12/04 02:10:56;;;;;;;53.45;16.65;;;2.00;99.90;;;;;;4994903;28;20462;-36
2022/12/04 02:13:55;;;;;;;48.42;15.73;;;2.00;99.90;;;;;;4992288;28;20022;-39
2022/12/04 02:16:34;;;;;;;45.55;15.35;;;2.00;99.90;;;;;;4984057;28;20474;-38
2022/12/04 02:19:19;;;;;;;47.17;17.17;;;2.00;99.90;;;;;;4994558;28;20415;-48
2022/12/04 02:21:48;;;;;;;43.47;17.23;;;2.00;99.90;;;;;;4997731;28;20034;-34
2022/12/04 02:24:52;;;;;;;50.45;16.88;;;2.00;99.90;;;;;;4994477;28;20042;-39
2022/12/04 02:27:39;;;;;;;58.17;16.75;;;2.00;99.90;;;;;;4994447;28;20478;-38
2022/12/04 02:30:12;;;;;;;48.67;16.25;;;2.00;99.90;;;;;;4989249;28;20018;-37
2022/12/04 02:32:44;;;;;;;46.85;15.57;;;2.00;99.90;;;;;;4994430;28;20093;-39
2022/12/04 02:35:26;;;;;;;54.25;16.30;;;2.00;99.90;;;;;;4993309;28;20026;-38
2022/12/04 02:37:57;;;;;;;56.58;18.45;;;2.00;99.90;;;;;;4987438;28;20495;-35
2022/12/04 02:40:32;;;;;;;49.60;16.92;;;2.00;99.90;;;;;;4987751;28;20041;-35
2022/12/04 02:43:09;;;;;;;49.60;16.45;;;2.10;99.90;;;;;;4991742;28;20034;-38
2022/12/04 02:45:43;;;;;;;48.80;18.85;;;2.10;99.90;;;;;;4977033;28;20117;-47
2022/12/04 02:48:12;;;;;;;42.80;16.00;;;2.00;99.90;;;;;;4994120;28;20041;-50
2022/12/04 02:50:40;;;;;;;41.13;14.98;;;2.10;99.90;;;;;;4993958;28;20390;-38
2022/12/04 02:53:16;;;;;;;52.10;16.65;;;2.00;99.90;;;;;;4988214;28;20165;-43
2022/12/04 02:56:08;;;;;;;48.05;16.88;;;2.00;99.90;;;;;;4969152;28;20478;-43
2022/12/04 02:58:39;;;;;;;48.53;16.23;;;2.00;99.90;;;;;;4980807;28;20567;-39
2022/12/04 03:01:18;;;;;;;52.72;18.00;;;2.00;99.90;;;;;;4988413;28;20045;-40
2022/12/04 03:04:08;;;;;;;46.20;15.25;;;2.00;99.90;;;;;;4992798;28;20037;-42
2022/12/04 03:06:38;;;;;;;50.15;16.85;;;2.00;99.90;;;;;;4992000;28;20504;-41
2022/12/04 03:09:14;;;;;;;53.92;16.63;;;2.00;99.90;;;;;;4970985;28;20080;-41
2022/12/04 03:11:45;;;;;;;56.20;17.05;;;1.90;99.90;;;;;;4989298;28;20110;-45
2022/12/04 03:14:19;;;;;;;50.78;16.40;;;1.90;99.90;;;;;;4974871;28;20065;-48
2022/12/04 03:16:47;;;;;;;42.55;16.02;;;2.00;99.90;;;;;;4992614;28;20026;-43
2022/12/04 03:19:20;;;;;;;55.20;17.70;;;1.90;99.90;;;;;;5007828;28;20539;-42
2022/12/04 03:21:52;;;;;;;44.75;16.08;;;2.00;99.90;;;;;;5004804;28;20045;-44
2022/12/04 03:24:26;;;;;;;57.38;16.95;;;1.90;99.90;;;;;;4991941;28;20038;-41
2022/12/04 03:27:01;;;;;;;50.42;17.02;;;1.90;99.90;;;;;;4993567;28;20037;-41
2022/12/04 03:29:53;;;;;;;59.20;18.50;;;2.00;99.90;;;;;;4975363;28;20054;-41
2022/12/04 03:32:57;;;;;;;49.40;17.02;;;2.00;99.90;;;;;;4988795;28;20066;-35
2022/12/04 03:35:32;;;;;;;49.50;16.58;;;2.00;99.90;;;;;;4946352;28;20030;-35
2022/12/04 03:38:19;;;;;;;50.05;17.25;;;2.10;99.90;;;;;;4992660;28;20084;-38
2022/12/04 03:40:58;;;;;;;45.35;16.38;;;2.10;99.90;;;;;;4993206;28;20037;-40
2022/12/04 03:43:47;;;;;;;45.03;14.38;;;2.10;99.90;;;;;;4993360;28;20514;-35
2022/12/04 03:46:33;;;;;;;57.65;18.13;;;2.10;99.90;;;;;;4954546;28;20549;-38
2022/12/04 03:49:12;;;;;;;52.70;16.63;;;2.10;99.90;;;;;;4973257;28;20113;-42
2022/12/04 03:51:47;;;;;;;51.92;16.65;;;2.10;99.90;;;;;;4993474;28;20054;-63
2022/12/04 03:54:21;;;;;;;53.38;16.67;;;2.10;99.90;;;;;;4992518;28;20030;-73
2022/12/04 03:57:01;;;;;;;59.55;19.15;;;2.10;99.90;;;;;;4993174;28;20124;-40
2022/12/04 03:59:39;;;;;;;51.85;17.70;;;2.10;99.90;;;;;;4975268;28;20125;-41
2022/12/04 04:02:09;;;;;;;49.33;16.88;;;2.00;99.90;;;;;;4993005;28;20034;-42
2022/12/04 04:04:37;;;;;;;58.78;18.45;;;2.00;99.90;;;;;;4975021;28;20034;-42
2022/12/04 04:07:25;;;;;;;46.85;17.73;;;2.00;99.90;;;;;;4993297;28;20490;-45
2022/12/04 04:09:58;;;;;;;48.05;16.52;;;2.10;99.90;;;;;;4984612;28;20034;-47
2022/12/04 04:12:27;;;;;;;49.67;18.10;;;2.20;99.90;;;;;;4973707;28;20038;-44
2022/12/04 04:26:34;;;;;;;54.67;16.13;;;2.00;99.90;;;;;;4992899;28;20045;-44
2022/12/04 04:29:00;;;;;;;45.47;16.23;;;2.00;99.90;;;;;;4993303;28;20126;-45
2022/12/04 04:31:39;;;;;;;47.97;16.98;;;2.10;99.90;;;;;;4993301;28;20106;-42
2022/12/04 04:34:39;;;;;;;50.45;16.90;;;2.00;99.90;;;;;;4992954;28;20434;-46
2022/12/04 04:37:37;;;;;;;47.95;15.27;;;2.00;99.90;;;;;;4993024;28;20038;-38
2022/12/04 04:40:18;;;;;;;61.00;18.17;;;1.90;99.90;;;;;;4957097;28;20049;-43
2022/12/04 04:42:56;;;;;;;46.53;16.88;;;2.00;99.90;;;;;;4975392;28;20112;-37
2022/12/04 04:45:34;;;;;;;51.35;16.35;;;2.00;99.90;;;;;;4975374;28;20038;-36
2022/12/04 04:48:02;;;;;;;;;;;2.00;99.90;;;;;;4993185;28;20537;-35
2022/12/04 04:50:37;;;;;;;51.97;16.52;;;2.00;99.90;;;;;;4992943;28;20277;-46
2022/12/04 04:53:08;;;;;;;52.20;18.30;;;2.00;99.90;;;;;;4978581;28;20046;-44
2022/12/04 04:55:35;;;;;;;50.97;17.27;;;2.00;99.90;;;;;;4994270;28;20485;-42
2022/12/04 04:58:13;;;;;;;52.60;16.13;;;2.00;99.90;;;;;;4995590;28;20033;-43
2022/12/04 05:00:43;;;;;;;52.60;16.73;;;2.00;99.90;;;;;;4995951;28;20453;-41
2022/12/04 05:03:08;;;;;;;51.65;15.60;;;2.00;99.90;;;;;;4997031;28;20470;-43
2022/12/04 05:05:34;;;;;;;52.13;18.20;;;2.00;99.90;;;;;;4978411;28;20085;-34
2022/12/04 05:08:00;;;;;;;48.78;17.15;;;2.00;99.90;;;;;;4995327;28;20022;-39
2022/12/04 05:10:25;;;;;;;54.63;18.17;;;2.00;99.90;;;;;;4977653;28;20125;-42
2022/12/04 05:12:51;;;;;;;48.20;15.90;;;2.00;99.90;;;;;;4995175;28;20364;-43
2022/12/04 05:15:16;;;;;;;55.63;16.88;;;2.00;99.90;;;;;;4995904;28;20030;-36
2022/12/04 05:17:42;;;;;;;46.38;17.27;;;2.00;99.90;;;;;;4995748;28;20031;-39
2022/12/04 05:20:09;;;;;;;55.08;16.85;;;2.00;99.90;;;;;;4976164;28;20029;-36
2022/12/04 05:22:36;;;;;;;59.33;18.23;;;2.00;99.90;;;;;;4993685;28;20038;-38
2022/12/04 05:25:03;;;;;;;54.55;15.95;;;2.00;99.90;;;;;;4992489;28;20494;-36
2022/12/04 05:27:29;;;;;;;48.13;16.42;;;2.00;99.90;;;;;;4992970;28;20072;-43
2022/12/04 05:29:57;;;;;;;50.58;17.35;;;2.10;99.90;;;;;;4994497;28;20433;-42
2022/12/04 05:32:24;;;;;;;47.75;17.58;;;2.10;99.90;;;;;;4995557;28;20101;-44
2022/12/04 05:34:51;;;;;;;47.60;17.35;;;2.10;99.90;;;;;;4995306;28;20162;-39
2022/12/04 05:37:17;;;;;;;50.95;17.52;;;2.10;99.90;;;;;;4995404;28;20045;-40
2022/12/04 05:39:43;;;;;;;58.00;18.40;;;2.10;99.90;;;;;;4995264;28;20050;-43
2022/12/04 05:42:09;;;;;;;56.78;18.90;;;2.10;99.90;;;;;;4993952;28;20034;-40
2022/12/04 05:44:35;;;;;;;53.60;17.40;;;2.10;99.90;;;;;;4977416;28;20514;-43
2022/12/04 05:47:01;;;;;;;59.92;19.38;;;2.10;99.90;;;;;;4994486;28;20022;-45
2022/12/04 05:49:30;;;;;;;47.45;17.30;;;2.10;99.90;;;;;;4995181;28;20426;-39
2022/12/04 05:51:56;;;;;;;46.08;16.58;;;2.20;99.90;;;;;;4995129;28;20030;-35
2022/12/04 05:54:22;;;;;;;55.72;18.27;;;2.10;99.90;;;;;;4995108;28;20033;-34
2022/12/04 05:56:48;;;;;;;47.92;18.08;;;2.10;99.90;;;;;;4994006;28;20359;-38
2022/12/04 05:59:14;;;;;;;51.72;17.50;;;2.10;99.90;;;;;;4994470;28;20031;-40
2022/12/04 06:01:40;;;;;;;54.03;17.05;;;2.10;99.90;;;;;;4994822;28;20577;-42
2022/12/04 06:04:05;;;;;;;48.97;16.00;;;2.10;99.90;;;;;;4994174;28;20030;-47
2022/12/04 06:06:31;;;;;;;52.90;17.55;;;2.20;99.90;;;;;;4994964;28;20030;-41
2022/12/04 06:08:58;;;;;;;50.17;17.80;;;2.20;99.90;;;;;;4976139;28;20022;-43
2022/12/04 06:11:35;;;;;;;57.85;17.80;;;2.20;99.90;;;;;;4993872;28;20023;-37
2022/12/04 06:14:02;;;;;;;47.72;17.48;;;2.20;99.90;;;;;;4995013;28;20470;-40
2022/12/04 06:16:34;;;;;;;51.45;16.98;;;2.20;99.90;;;;;;4994624;28;20109;-39
2022/12/04 06:19:22;;;;;;;55.60;18.70;;;2.20;99.90;;;;;;4994623;28;20034;-35
2022/12/04 06:21:50;;;;;;;50.20;16.90;;;2.10;99.90;;;;;;4974650;28;20034;-44
2022/12/04 06:24:19;;;;;;;53.95;17.27;;;2.10;99.90;;;;;;4994722;28;20030;-37
2022/12/04 06:26:45;;;;;;;48.72;16.15;;;2.20;99.90;;;;;;4993621;28;20022;-37
2022/12/04 06:29:12;;;;;;;45.00;16.25;;;2.10;99.90;;;;;;4994525;28;20086;-43
2022/12/04 06:31:38;;;;;;;49.83;17.63;;;2.10;99.90;;;;;;4994429;28;20022;-42
2022/12/04 06:34:05;;;;;;;50.45;18.00;;;2.10;99.90;;;;;;4994305;28;20037;-40
2022/12/04 06:36:31;;;;;;;44.45;16.77;;;2.00;99.90;;;;;;4979673;28;20034;-42
2022/12/04 06:38:57;;;;;;;52.80;17.05;;;2.00;99.90;;;;;;4993990;28;20097;-42
2022/12/04 06:41:24;;;;;;;45.78;15.48;;;2.00;99.90;;;;;;4993239;28;20027;-43
2022/12/04 06:43:50;;;;;;;46.80;17.05;;;2.10;99.90;;;;;;4994130;28;20532;-40
2022/12/04 06:46:21;;;;;;;45.97;17.17;;;2.00;99.90;;;;;;4994116;28;20030;-33
2022/12/04 06:48:48;;;;;;;48.58;16.50;;;2.00;99.90;;;;;;4994133;28;20037;-35
2022/12/04 06:51:17;;;;;;;49.97;16.98;;;2.00;99.90;;;;;;5008936;28;20088;-39
2022/12/04 06:53:43;;;;;;;52.78;17.10;;;2.00;99.90;;;;;;5007459;28;20106;-44
2022/12/04 06:56:13;;;;;;;47.83;16.38;;;2.00;99.90;;;;;;4994008;28;20540;-41
2022/12/04 06:58:38;;;;;;;57.22;16.92;;;2.00;99.90;;;;;;4992898;28;20049;-40
2022/12/04 07:01:09;;;;;;;50.85;15.85;;;2.00;99.90;;;;;;4994004;28;20035;-41
2022/12/04 07:03:35;;;;;;;51.33;17.77;;;2.00;99.90;;;;;;4993775;28;20030;-40
2022/12/04 07:06:25;;;;;;;45.50;17.83;;;2.00;99.90;;;;;;4994071;28;20467;-36
2022/12/04 07:08:54;;;;;;;49.05;16.48;;;2.00;99.90;;;;;;4992983;28;20569;-37
2022/12/04 07:11:21;;;;;;;45.65;14.95;;;2.00;99.90;;;;;;4993003;28;20594;-45
2022/12/04 07:13:47;;;;;;;48.15;17.95;;;1.90;99.90;;;;;;4991867;28;20034;-33
2022/12/04 07:16:15;;;;;;;51.03;16.42;;;1.90;99.90;;;;;;4993536;28;20557;-34
2022/12/04 07:18:41;;;;;;;44.75;17.30;;;1.90;99.90;;;;;;4993714;28;20022;-38
2022/12/04 07:21:08;;;;;;;53.90;17.17;;;1.90;99.90;;;;;;4993881;28;20497;-44
2022/12/04 07:23:35;;;;;;;49.92;16.50;;;1.90;99.90;;;;;;4993544;28;20022;-41
2022/12/04 07:26:05;;;;;;;47.05;16.27;;;1.90;99.90;;;;;;4993842;28;20044;-42
2022/12/04 07:28:31;;;;;;;42.75;15.63;;;2.00;99.90;;;;;;4992017;28;20562;-57
2022/12/04 07:30:57;;;;;;;48.05;16.25;;;2.00;99.90;;;;;;4993543;28;20097;-41
2022/12/04 07:33:23;;;;;;;54.05;16.00;;;2.00;99.90;;;;;;4993705;28;20065;-45
2022/12/04 07:35:56;;;;;;;47.05;16.45;;;1.90;99.90;;;;;;4993446;28;20030;-42
2022/12/04 07:38:21;;;;;;;43.75;16.23;;;1.90;99.90;;;;;;5002000;28;20042;-40
2022/12/04 07:40:47;;;;;;;52.75;17.15;;;1.90;99.90;;;;;;4992294;28;20485;-44
2022/12/04 07:43:13;;;;;;;47.72;17.05;;;1.90;99.90;;;;;;4988516;28;20030;-43
2022/12/04 07:45:38;;;;;;;40.55;15.98;;;2.00;99.90;;;;;;4990738;28;20545;-46
2022/12/04 07:48:04;;;;;;;45.50;15.70;;;2.00;99.90;;;;;;4992051;28;20023;-41
2022/12/04 07:50:30;;;;;;;51.65;17.92;;;2.10;99.90;;;;;;5001077;28;20022;-41
2022/12/04 07:52:55;;;;;;;49.58;15.75;;;2.10;99.90;;;;;;4996483;28;20482;-42
2022/12/04 07:55:21;;;;;;;37.63;14.90;;;2.10;99.90;;;;;;4976645;28;20049;-46
2022/12/04 07:57:46;;;;;;;43.05;16.42;;;2.20;99.90;;;;;;4992370;28;20360;-45
2022/12/04 08:00:13;;;;;;;49.50;15.73;;;2.20;99.90;;;;;;4992638;28;20106;-41
2022/12/04 08:02:38;;;;;;;45.45;17.98;;;2.20;99.90;;;;;;4980758;28;20048;-45
2022/12/04 08:05:07;;;;;;;46.22;15.48;;;2.20;99.90;;;;;;4972544;28;20027;-41
2022/12/04 08:07:33;;;;;;;45.20;16.80;;;2.20;99.90;;;;;;4973750;28;20027;-43
2022/12/04 08:09:59;;;;;;;47.03;15.77;;;2.20;99.90;;;;;;4983893;28;20456;-43
2022/12/04 08:12:24;;;;;;;44.97;16.67;;;2.30;99.90;;;;;;4991534;28;20560;-42
2022/12/04 08:14:50;;;;;;;51.42;16.48;;;2.30;99.90;;;;;;4976044;28;20070;-55
2022/12/04 08:17:15;;;;;;;47.50;17.00;;;2.30;99.90;;;;;;4992996;28;20030;-40
2022/12/04 08:19:41;;;;;;;45.25;16.25;;;2.30;99.90;;;;;;4980430;28;20029;-45
2022/12/04 08:22:07;;;;;;;41.10;15.93;;;2.30;99.90;;;;;;4956515;28;20022;-43
2022/12/04 08:24:32;;;;;;;47.35;16.80;;;2.30;99.90;;;;;;4974066;28;20062;-42
2022/12/04 08:26:58;;;;;;;46.67;17.00;;;2.40;99.90;;;;;;4964218;28;20073;-46
2022/12/04 08:29:24;;;;;;;47.80;15.23;;;2.40;99.90;;;;;;4980404;28;20046;-42
2022/12/04 08:31:50;;;;;;;44.97;16.10;;;2.40;99.90;;;;;;4996712;28;20097;-41
2022/12/04 08:34:15;;;;;;;43.53;15.43;;;2.40;99.90;;;;;;4979223;28;20022;-42
2022/12/04 08:36:44;;;;;;;50.42;18.27;;;2.40;99.90;;;;;;4995663;28;20081;-43
2022/12/04 08:39:11;;;;;;;49.05;17.10;;;2.40;99.90;;;;;;4996294;28;20533;-42
2022/12/04 08:41:37;;;;;;;51.03;17.35;;;2.40;99.90;;;;;;4996587;28;20478;-38
2022/12/04 08:44:03;;;;;;;42.17;15.82;;;2.30;99.90;;;;;;4995402;28;20168;-37
2022/12/04 08:46:29;;;;;;;51.75;16.17;;;2.30;99.90;;;;;;4996528;28;20019;-44
2022/12/04 08:48:55;;;;;;;51.15;16.55;;;2.40;99.90;;;;;;4996268;28;20030;-38
2022/12/04 08:51:22;;;;;;;47.58;16.17;;;2.40;99.90;;;;;;4996329;28;20095;-33
2022/12/04 08:53:53;;;;;;;42.33;15.07;;;2.30;99.90;;;;;;4994038;28;20474;-41
2022/12/04 08:56:18;;;;;;;57.38;16.77;;;2.40;99.90;;;;;;4994054;28;20459;-42
2022/12/04 08:58:44;;;;;;;49.70;17.58;;;2.40;99.90;;;;;;4993598;28;20035;-40
2022/12/04 09:01:12;;;;;;;48.75;16.45;;;2.40;99.90;;;;;;4992126;28;20027;-38
2022/12/04 09:03:38;;;;;;;47.30;16.60;;;2.50;99.90;;;;;;4980113;28;20450;-42
2022/12/04 09:06:05;;;;;;;46.05;16.10;;;2.50;99.90;;;;;;4995685;28;20490;-44
2022/12/04 09:08:31;;;;;;;42.83;15.27;;;2.50;99.90;;;;;;4996305;28;20418;-42
2022/12/04 09:11:03;;;;;;;57.78;17.10;;;2.50;99.90;;;;;;4980641;28;20023;-43
2022/12/04 09:13:29;;;;;;;45.60;16.20;;;2.50;99.90;;;;;;4986454;28;20080;-45
2022/12/04 09:15:55;;;;;;;47.42;16.50;;;2.40;99.90;;;;;;5008309;28;20466;-42
2022/12/04 09:18:21;;;;;;;50.53;16.13;;;2.40;99.90;;;;;;5011857;28;20093;-42
2022/12/04 09:20:55;;;;;;;45.35;15.13;;;2.50;99.90;;;;;;4999949;28;20485;-44
2022/12/04 09:23:21;;;;;;;42.72;15.65;;;2.50;99.90;;;;;;4991338;28;20069;-41
2022/12/04 09:25:47;;;;;;;54.13;16.80;;;2.50;99.90;;;;;;4989931;28;20511;-43
2022/12/04 09:28:13;;;;;;;48.55;17.27;;;2.40;99.90;;;;;;4987906;28;20033;-43
2022/12/04 09:30:38;;;;;;;44.67;15.98;;;2.40;99.90;;;;;;4992630;28;20109;-43
2022/12/04 09:33:04;;;;;;;49.17;16.23;;;2.40;99.90;;;;;;4994519;28;20023;-44
2022/12/04 09:35:33;;;;;;;55.83;16.33;;;2.50;99.90;;;;;;4983050;28;20029;-44
2022/12/04 09:37:58;;;;;;;41.28;15.35;;;2.50;99.90;;;;;;4985217;28;20498;-42
2022/12/04 09:40:27;;;;;;;47.97;14.38;;;2.50;99.90;;;;;;5001493;28;20088;-46
2022/12/04 09:43:25;;;;;;;52.10;16.27;;;2.50;99.90;;;;;;4992877;28;20064;-48
2022/12/04 09:45:53;;;;;;;44.75;15.35;;;2.40;99.90;;;;;;4978109;28;20026;-49
2022/12/04 09:48:21;;;;;;;45.22;15.98;;;2.50;99.90;;;;;;5003663;28;20457;-42
2022/12/04 09:50:48;;;;;;;45.70;14.60;;;2.50;99.90;;;;;;4995279;28;20101;-44
2022/12/04 09:53:26;;;;;;;51.95;16.27;;;2.60;99.90;;;;;;4993704;28;20048;-44
2022/12/04 09:55:58;;;;;;;;;;;2.70;99.90;;;;;;5014985;28;20485;-40
2022/12/04 09:58:49;;;;;;;40.30;13.20;;;2.60;99.90;;;;;;5003331;28;19917;-44
2022/12/04 10:01:31;;;;;;;41.95;14.00;;;2.60;99.90;;;;;;4971952;28;20042;-35
2022/12/04 10:03:59;;;;;;;42.10;13.43;;;2.50;99.90;;;;;;4975461;28;20551;-34
2022/12/04 10:06:35;;;;;;;35.13;13.98;;;2.50;99.90;;;;;;4975509;28;20019;-34
2022/12/04 10:09:12;;;;;;;40.80;14.30;;;2.60;99.90;;;;;;4978098;28;20026;-38
2022/12/04 10:11:40;;;;;;;36.90;13.07;;;2.60;99.90;;;;;;4992750;28;20065;-36
2022/12/04 10:14:45;;;;;;;46.40;14.55;;;2.60;99.90;;;;;;4991362;28;20584;-32
2022/12/04 10:17:43;;;;;;;40.67;14.13;;;2.60;99.90;;;;;;4998043;28;20030;-40
2022/12/04 10:20:33;;;;;;;43.00;15.07;;;2.60;99.90;;;;;;4992326;28;20030;-39
2022/12/04 10:23:26;;;;;;;51.45;16.20;;;2.60;99.90;;;;;;4994475;28;20076;-40
2022/12/04 10:25:54;;;;;;;47.42;13.63;;;2.50;99.90;;;;;;4994462;28;20030;-39
2022/12/04 10:28:31;;;;;;;32.80;13.13;;;2.40;99.90;;;;;;4994779;28;20498;-39
2022/12/04 10:31:00;;;;;;;39.03;13.45;;;2.50;99.90;;;;;;4992537;28;20081;-39
2022/12/04 10:33:36;;;;;;;50.38;16.02;;;2.50;99.90;;;;;;4994536;28;20435;-41
2022/12/04 10:36:02;;;;;;;46.38;15.68;;;2.60;99.90;;;;;;4989739;28;20475;-36
2022/12/04 10:38:38;;;;;;;34.50;12.77;;;2.60;99.90;;;;;;5009601;28;20042;-34
2022/12/04 10:41:27;;;;;;;30.58;11.57;;;2.50;99.90;;;;;;5013952;28;20482;-36
2022/12/04 10:43:53;;;;;;;37.13;11.35;;;2.50;99.90;;;;;;4973540;28;20046;-36
2022/12/04 10:46:37;;;;;;;34.80;12.43;;;2.40;99.90;;;;;;5014043;28;20521;-36
2022/12/04 10:49:21;;;;;;;34.50;11.60;;;2.40;99.90;;;;;;5007305;28;20065;-38
2022/12/04 10:51:48;;;;;;;33.88;12.73;;;2.50;99.90;;;;;;4990663;28;20030;-35
2022/12/04 10:54:32;;;;;;;38.15;12.68;;;2.50;99.90;;;;;;4993776;28;20080;-36
2022/12/04 10:57:04;;;;;;;33.47;10.95;;;2.50;99.90;;;;;;4993761;28;20485;-34
2022/12/04 10:59:30;;;;;;;42.75;13.48;;;2.50;99.90;;;;;;4992545;28;20033;-39
2022/12/04 11:02:15;;;;;;;41.00;12.90;;;2.50;99.90;;;;;;4973972;28;20125;-37
2022/12/04 11:04:42;;;;;;;33.20;11.90;;;2.50;99.90;;;;;;4974726;28;20442;-36
2022/12/04 11:07:23;;;;;;;35.45;11.98;;;2.50;99.90;;;;;;4991539;28;20463;-39
2022/12/04 11:10:17;;;;;;;33.72;12.65;;;2.50;99.90;;;;;;4991639;28;20109;-33
2022/12/04 11:12:57;;;;;;;37.60;12.45;;;2.40;99.90;;;;;;4992536;28;20497;-52
2022/12/04 11:15:24;;;;;;;32.05;12.15;;;2.40;99.90;;;;;;4993638;28;20136;-35
2022/12/04 11:17:51;;;;;;;42.63;12.70;;;2.40;99.90;;;;;;4993642;28;20035;-38
2022/12/04 11:20:23;;;;;;;35.20;11.73;;;2.30;99.90;;;;;;4990052;28;20506;-36
2022/12/04 11:22:59;;;;;;;30.02;11.55;;;2.40;99.90;;;;;;5002786;28;20022;-40
2022/12/04 11:25:35;;;;;;;32.45;11.80;;;2.40;99.90;;;;;;4992476;28;20039;-38
2022/12/04 11:28:03;;;;;;;32.85;11.15;;;2.50;99.90;;;;;;4994691;28;20070;-32
2022/12/04 11:30:37;;;;;;;22.20;9.25;;;2.50;99.90;;;;;;4993291;28;20101;-35
2022/12/04 11:33:06;;;;;;;30.10;9.63;;;2.50;99.90;;;;;;4993256;28;20061;-42
2022/12/04 11:35:32;;;;;;;31.30;9.95;;;2.50;99.90;;;;;;4993394;28;20363;-38
2022/12/04 11:38:12;;;;;;;32.15;8.98;;;2.50;99.90;;;;;;4991842;28;20056;-38
2022/12/04 11:40:38;;;;;;;30.08;9.77;;;2.40;99.90;;;;;;4991207;28;20089;-37
2022/12/04 11:43:08;;;;;;;30.95;10.35;;;2.40;99.90;;;;;;4993315;28;20035;-35
2022/12/04 11:45:34;;;;;;;28.23;9.38;;;2.40;99.90;;;;;;4993255;28;20499;-33
2022/12/04 11:48:12;;;;;;;32.88;9.85;;;2.40;99.90;;;;;;4993119;28;20053;-35
2022/12/04 11:50:56;;;;;;;29.80;9.52;;;2.40;99.90;;;;;;4993153;28;20038;-35
2022/12/04 11:53:41;;;;;;;34.25;9.10;;;2.40;99.90;;;;;;4993320;28;20034;-34
2022/12/04 11:56:22;;;;;;;23.58;9.23;;;2.50;99.90;;;;;;4993328;28;20482;-35
2022/12/04 11:59:09;;;;;;;28.85;9.13;;;2.60;99.90;;;;;;4993866;28;20545;-39
2022/12/04 12:01:37;;;;;;;33.37;10.67;;;2.60;99.90;;;;;;4996456;28;20376;-38
2022/12/04 12:04:25;;;;;;;24.55;8.63;;;2.60;99.90;;;;;;4997403;28;20789;-39
2022/12/04 12:07:08;;;;;;;31.05;9.95;;;2.60;99.90;;;;;;4961163;28;20491;-40
2022/12/04 12:09:48;;;;;;;27.90;9.35;;;2.70;99.90;;;;;;4986854;28;20018;-40
2022/12/04 12:12:23;;;;;;;26.70;8.98;;;2.70;99.90;;;;;;4997078;28;20538;-39
2022/12/04 12:14:55;;;;;;;22.00;8.65;;;2.70;99.90;;;;;;4996872;28;20026;-39
2022/12/04 12:17:45;;;;;;;19.60;8.05;;;2.70;99.90;;;;;;4995804;28;20030;-35
2022/12/04 12:20:35;;;;;;;21.55;8.13;;;2.70;99.90;;;;;;4973903;28;20563;-36
2022/12/04 12:23:18;;;;;;;22.45;8.80;;;2.60;99.90;;;;;;4991801;28;20046;-34
2022/12/04 12:26:05;;;;;;;23.27;8.73;;;2.60;99.90;;;;;;4995577;28;20022;-40
2022/12/04 12:28:37;;;;;;;23.60;8.15;;;2.60;99.90;;;;;;4995955;28;20053;-37
2022/12/04 12:31:23;;;;;;;19.58;7.68;;;2.60;99.90;;;;;;4996420;28;20478;-37
2022/12/04 12:34:14;;;;;;;22.20;7.20;;;2.60;99.90;;;;;;4992509;28;20030;-39
2022/12/04 12:36:46;;;;;;;24.80;8.68;;;2.60;99.90;;;;;;4994856;28;20041;-38
2022/12/04 12:39:18;;;;;;;22.55;7.43;;;2.70;99.90;;;;;;4981408;28;20133;-37
2022/12/04 12:41:51;;;;;;;23.27;9.00;;;2.70;99.90;;;;;;4975025;28;20530;-35
2022/12/04 12:44:20;;;;;;;20.70;7.25;;;2.60;99.90;;;;;;4966742;28;20517;-39
2022/12/04 12:46:55;;;;;;;17.80;7.47;;;2.60;99.90;;;;;;4972607;28;20110;-38
2022/12/04 12:49:26;;;;;;;18.20;8.13;;;2.70;99.90;;;;;;4979678;28;20483;-43
2022/12/04 12:52:15;;;;;;;25.58;8.73;;;2.70;99.90;;;;;;4977443;28;20546;-43
2022/12/04 12:54:52;;;;;;;28.00;9.18;;;2.70;99.90;;;;;;4980297;28;20117;-42
2022/12/04 12:57:21;;;;;;;32.10;8.35;;;2.60;99.90;;;;;;4974961;28;20038;-42
2022/12/04 12:59:51;;;;;;;23.23;8.35;;;2.60;99.90;;;;;;4974819;28;20038;-42
2022/12/04 13:02:37;;;;;;;20.92;7.90;;;2.70;99.90;;;;;;4984585;28;20034;-40
2022/12/04 13:05:09;;;;;;;19.40;6.95;;;2.80;99.90;;;;;;4974942;28;20467;-43
2022/12/04 13:07:51;;;;;;;17.95;8.48;;;2.70;99.90;;;;;;4973498;28;20031;-43
2022/12/04 13:10:26;;;;;;;14.75;7.28;;;2.70;99.90;;;;;;4969172;28;20391;-43
2022/12/04 13:12:54;;;;;;;18.67;7.00;;;2.80;99.90;;;;;;4968230;28;20023;-41